sensor_id;sensor_type;location;lat;lon;timestamp;P1;durP1;ratioP1;P2;durP2;ratioP2
71910;SDS011;59783;52.232;5.170;2022-08-19T00:00:03;11.38;;;5.90;;
71910;SDS011;59783;52.232;5.170;2022-08-19T00:02:33;12.90;;;5.88;;
71910;SDS011;59783;52.232;5.170;2022-08-19T00:04:59;9.82;;;5.57;;
71910;SDS011;59783;52.232;5.170;2022-08-19T00:07:24;12.68;;;6.15;;
71910;SDS011;59783;52.232;5.170;2022-08-19T00:09:49;9.63;;;5.82;;
71910;SDS011;59783;52.232;5.170;2022-08-19T00:12:14;9.90;;;5.47;;
71910;SDS011;59783;52.232;5.170;2022-08-19T00:14:40;12.88;;;5.72;;
71910;SDS011;59783;52.232;5.170;2022-08-19T00:17:06;10.15;;;5.70;;
71910;SDS011;59783;52.232;5.170;2022-08-19T00:19:32;10.05;;;5.80;;
71910;SDS011;59783;52.232;5.170;2022-08-19T00:21:58;10.73;;;5.43;;
71910;SDS011;59783;52.232;5.170;2022-08-19T00:24:24;10.93;;;5.97;;
71910;SDS011;59783;52.232;5.170;2022-08-19T00:26:49;12.23;;;6.57;;
71910;SDS011;59783;52.232;5.170;2022-08-19T00:29:16;8.90;;;5.05;;
71910;SDS011;59783;52.232;5.170;2022-08-19T00:31:44;13.68;;;5.78;;
71910;SDS011;59783;52.232;5.170;2022-08-19T00:34:10;11.55;;;5.38;;
71910;SDS011;59783;52.232;5.170;2022-08-19T00:36:36;11.98;;;6.53;;
71910;SDS011;59783;52.232;5.170;2022-08-19T00:39:02;13.10;;;6.32;;
71910;SDS011;59783;52.232;5.170;2022-08-19T00:41:28;10.60;;;5.80;;
71910;SDS011;59783;52.232;5.170;2022-08-19T00:44:13;10.65;;;5.50;;
71910;SDS011;59783;52.232;5.170;2022-08-19T00:46:45;11.05;;;6.47;;
71910;SDS011;59783;52.232;5.170;2022-08-19T00:49:16;10.23;;;5.68;;
71910;SDS011;59783;52.232;5.170;2022-08-19T00:51:44;10.77;;;6.13;;
71910;SDS011;59783;52.232;5.170;2022-08-19T00:54:12;11.07;;;6.57;;
71910;SDS011;59783;52.232;5.170;2022-08-19T00:56:37;12.18;;;6.20;;
71910;SDS011;59783;52.232;5.170;2022-08-19T00:59:03;10.38;;;6.05;;
71910;SDS011;59783;52.232;5.170;2022-08-19T01:01:35;11.35;;;7.97;;
71910;SDS011;59783;52.232;5.170;2022-08-19T01:04:01;13.48;;;7.68;;
71910;SDS011;59783;52.232;5.170;2022-08-19T01:06:26;10.68;;;6.38;;
71910;SDS011;59783;52.232;5.170;2022-08-19T01:08:53;13.50;;;8.88;;
71910;SDS011;59783;52.232;5.170;2022-08-19T01:11:19;10.50;;;6.43;;
71910;SDS011;59783;52.232;5.170;2022-08-19T01:13:44;11.13;;;6.60;;
71910;SDS011;59783;52.232;5.170;2022-08-19T01:16:10;9.88;;;5.90;;
71910;SDS011;59783;52.232;5.170;2022-08-19T01:18:38;11.73;;;7.40;;
71910;SDS011;59783;52.232;5.170;2022-08-19T01:21:09;11.75;;;6.07;;
71910;SDS011;59783;52.232;5.170;2022-08-19T01:23:40;12.63;;;6.60;;
71910;SDS011;59783;52.232;5.170;2022-08-19T01:26:10;10.82;;;6.80;;
71910;SDS011;59783;52.232;5.170;2022-08-19T01:28:41;11.52;;;6.30;;
71910;SDS011;59783;52.232;5.170;2022-08-19T01:31:10;10.50;;;5.93;;
71910;SDS011;59783;52.232;5.170;2022-08-19T01:33:37;11.32;;;6.30;;
71910;SDS011;59783;52.232;5.170;2022-08-19T01:36:04;11.18;;;6.18;;
71910;SDS011;59783;52.232;5.170;2022-08-19T01:38:30;10.35;;;6.32;;
71910;SDS011;59783;52.232;5.170;2022-08-19T01:40:56;11.82;;;6.40;;
71910;SDS011;59783;52.232;5.170;2022-08-19T01:43:22;10.32;;;6.47;;
71910;SDS011;59783;52.232;5.170;2022-08-19T01:45:47;12.80;;;6.88;;
71910;SDS011;59783;52.232;5.170;2022-08-19T01:48:15;10.32;;;5.55;;
71910;SDS011;59783;52.232;5.170;2022-08-19T01:50:40;13.10;;;7.03;;
71910;SDS011;59783;52.232;5.170;2022-08-19T01:53:07;10.15;;;6.40;;
71910;SDS011;59783;52.232;5.170;2022-08-19T01:55:35;12.55;;;7.22;;
71910;SDS011;59783;52.232;5.170;2022-08-19T01:58:02;11.45;;;6.55;;
71910;SDS011;59783;52.232;5.170;2022-08-19T02:00:29;12.32;;;7.00;;
71910;SDS011;59783;52.232;5.170;2022-08-19T02:02:55;10.98;;;6.82;;
71910;SDS011;59783;52.232;5.170;2022-08-19T02:05:21;11.45;;;6.32;;
71910;SDS011;59783;52.232;5.170;2022-08-19T02:07:47;10.30;;;6.13;;
71910;SDS011;59783;52.232;5.170;2022-08-19T02:10:14;11.00;;;6.30;;
71910;SDS011;59783;52.232;5.170;2022-08-19T02:12:41;10.80;;;6.13;;
71910;SDS011;59783;52.232;5.170;2022-08-19T02:15:06;10.50;;;6.28;;
71910;SDS011;59783;52.232;5.170;2022-08-19T02:17:32;12.05;;;6.97;;
71910;SDS011;59783;52.232;5.170;2022-08-19T02:19:58;12.13;;;7.40;;
71910;SDS011;59783;52.232;5.170;2022-08-19T02:22:23;13.32;;;6.47;;
71910;SDS011;59783;52.232;5.170;2022-08-19T02:24:50;13.52;;;9.18;;
71910;SDS011;59783;52.232;5.170;2022-08-19T02:27:16;15.80;;;7.35;;
71910;SDS011;59783;52.232;5.170;2022-08-19T02:29:41;12.93;;;6.88;;
71910;SDS011;59783;52.232;5.170;2022-08-19T02:32:07;13.38;;;7.68;;
71910;SDS011;59783;52.232;5.170;2022-08-19T02:34:32;12.80;;;7.35;;
71910;SDS011;59783;52.232;5.170;2022-08-19T02:36:58;13.55;;;8.73;;
71910;SDS011;59783;52.232;5.170;2022-08-19T02:39:23;14.23;;;7.97;;
71910;SDS011;59783;52.232;5.170;2022-08-19T02:41:49;15.32;;;8.40;;
71910;SDS011;59783;52.232;5.170;2022-08-19T02:44:15;13.48;;;8.20;;
71910;SDS011;59783;52.232;5.170;2022-08-19T02:46:40;14.82;;;8.30;;
71910;SDS011;59783;52.232;5.170;2022-08-19T02:49:06;15.38;;;8.85;;
71910;SDS011;59783;52.232;5.170;2022-08-19T02:51:34;15.57;;;8.40;;
71910;SDS011;59783;52.232;5.170;2022-08-19T02:54:01;15.80;;;8.63;;
71910;SDS011;59783;52.232;5.170;2022-08-19T02:56:27;16.27;;;8.85;;
71910;SDS011;59783;52.232;5.170;2022-08-19T02:58:56;16.38;;;8.98;;
71910;SDS011;59783;52.232;5.170;2022-08-19T03:01:23;17.05;;;8.85;;
71910;SDS011;59783;52.232;5.170;2022-08-19T03:03:53;15.50;;;9.02;;
71910;SDS011;59783;52.232;5.170;2022-08-19T03:06:20;15.85;;;9.23;;
71910;SDS011;59783;52.232;5.170;2022-08-19T03:08:46;15.15;;;8.93;;
71910;SDS011;59783;52.232;5.170;2022-08-19T03:18:30;18.10;;;9.70;;
71910;SDS011;59783;52.232;5.170;2022-08-19T03:20:56;16.50;;;10.00;;
71910;SDS011;59783;52.232;5.170;2022-08-19T03:23:21;17.42;;;9.65;;
71910;SDS011;59783;52.232;5.170;2022-08-19T03:25:48;15.88;;;9.60;;
71910;SDS011;59783;52.232;5.170;2022-08-19T03:28:16;16.65;;;10.40;;
71910;SDS011;59783;52.232;5.170;2022-08-19T03:30:43;15.40;;;9.02;;
71910;SDS011;59783;52.232;5.170;2022-08-19T03:33:20;16.17;;;9.00;;
71910;SDS011;59783;52.232;5.170;2022-08-19T03:35:46;18.80;;;9.45;;
71910;SDS011;59783;52.232;5.170;2022-08-19T03:38:12;16.38;;;9.30;;
71910;SDS011;59783;52.232;5.170;2022-08-19T03:40:37;18.10;;;11.40;;
71910;SDS011;59783;52.232;5.170;2022-08-19T03:43:02;15.15;;;8.32;;
71910;SDS011;59783;52.232;5.170;2022-08-19T03:45:28;15.07;;;8.60;;
71910;SDS011;59783;52.232;5.170;2022-08-19T03:47:53;15.68;;;8.70;;
71910;SDS011;59783;52.232;5.170;2022-08-19T03:50:19;16.00;;;10.27;;
71910;SDS011;59783;52.232;5.170;2022-08-19T03:52:48;16.73;;;9.23;;
71910;SDS011;59783;52.232;5.170;2022-08-19T03:55:15;16.85;;;9.45;;
71910;SDS011;59783;52.232;5.170;2022-08-19T03:57:41;17.25;;;9.75;;
71910;SDS011;59783;52.232;5.170;2022-08-19T04:00:06;16.77;;;9.38;;
71910;SDS011;59783;52.232;5.170;2022-08-19T04:02:32;16.90;;;9.75;;
71910;SDS011;59783;52.232;5.170;2022-08-19T04:04:58;17.42;;;10.38;;
71910;SDS011;59783;52.232;5.170;2022-08-19T04:07:23;17.77;;;9.75;;
71910;SDS011;59783;52.232;5.170;2022-08-19T04:09:49;18.38;;;11.00;;
71910;SDS011;59783;52.232;5.170;2022-08-19T04:12:16;19.77;;;11.68;;
71910;SDS011;59783;52.232;5.170;2022-08-19T04:14:42;22.08;;;10.52;;
71910;SDS011;59783;52.232;5.170;2022-08-19T04:17:07;25.00;;;13.35;;
71910;SDS011;59783;52.232;5.170;2022-08-19T04:19:33;24.15;;;13.00;;
71910;SDS011;59783;52.232;5.170;2022-08-19T04:21:59;23.27;;;12.45;;
71910;SDS011;59783;52.232;5.170;2022-08-19T04:24:25;24.38;;;12.55;;
71910;SDS011;59783;52.232;5.170;2022-08-19T04:26:50;21.10;;;11.00;;
71910;SDS011;59783;52.232;5.170;2022-08-19T04:29:17;23.65;;;12.15;;
71910;SDS011;59783;52.232;5.170;2022-08-19T04:31:46;22.88;;;11.75;;
71910;SDS011;59783;52.232;5.170;2022-08-19T04:34:13;21.95;;;12.40;;
71910;SDS011;59783;52.232;5.170;2022-08-19T04:39:07;24.02;;;13.05;;
71910;SDS011;59783;52.232;5.170;2022-08-19T04:41:34;23.15;;;12.52;;
71910;SDS011;59783;52.232;5.170;2022-08-19T04:44:18;24.60;;;12.68;;
71910;SDS011;59783;52.232;5.170;2022-08-19T04:46:45;28.67;;;13.32;;
71910;SDS011;59783;52.232;5.170;2022-08-19T04:49:12;25.23;;;13.52;;
71910;SDS011;59783;52.232;5.170;2022-08-19T04:51:40;24.83;;;12.63;;
71910;SDS011;59783;52.232;5.170;2022-08-19T04:54:07;26.15;;;13.60;;
71910;SDS011;59783;52.232;5.170;2022-08-19T04:56:32;24.90;;;13.13;;
71910;SDS011;59783;52.232;5.170;2022-08-19T04:58:57;25.40;;;14.52;;
71910;SDS011;59783;52.232;5.170;2022-08-19T05:01:28;26.63;;;14.45;;
71910;SDS011;59783;52.232;5.170;2022-08-19T05:03:55;26.83;;;14.77;;
71910;SDS011;59783;52.232;5.170;2022-08-19T05:06:22;29.83;;;14.70;;
71910;SDS011;59783;52.232;5.170;2022-08-19T05:08:48;30.90;;;15.60;;
71910;SDS011;59783;52.232;5.170;2022-08-19T05:11:16;32.17;;;16.75;;
71910;SDS011;59783;52.232;5.170;2022-08-19T05:13:44;32.35;;;16.33;;
71910;SDS011;59783;52.232;5.170;2022-08-19T05:16:11;30.42;;;15.23;;
71910;SDS011;59783;52.232;5.170;2022-08-19T05:18:38;35.38;;;17.20;;
71910;SDS011;59783;52.232;5.170;2022-08-19T05:21:23;35.83;;;16.95;;
71910;SDS011;59783;52.232;5.170;2022-08-19T05:24:08;32.58;;;16.67;;
71910;SDS011;59783;52.232;5.170;2022-08-19T05:26:34;32.53;;;16.80;;
71910;SDS011;59783;52.232;5.170;2022-08-19T05:29:07;36.05;;;17.70;;
71910;SDS011;59783;52.232;5.170;2022-08-19T05:31:35;35.47;;;17.85;;
71910;SDS011;59783;52.232;5.170;2022-08-19T05:34:01;37.72;;;18.77;;
71910;SDS011;59783;52.232;5.170;2022-08-19T05:36:32;37.63;;;18.83;;
71910;SDS011;59783;52.232;5.170;2022-08-19T05:39:02;43.33;;;18.88;;
71910;SDS011;59783;52.232;5.170;2022-08-19T05:41:28;36.58;;;18.77;;
71910;SDS011;59783;52.232;5.170;2022-08-19T05:44:00;43.50;;;20.13;;
71910;SDS011;59783;52.232;5.170;2022-08-19T05:46:28;40.83;;;21.15;;
71910;SDS011;59783;52.232;5.170;2022-08-19T05:48:53;41.50;;;19.83;;
71910;SDS011;59783;52.232;5.170;2022-08-19T05:51:21;44.88;;;22.90;;
71910;SDS011;59783;52.232;5.170;2022-08-19T05:53:47;45.28;;;21.05;;
71910;SDS011;59783;52.232;5.170;2022-08-19T05:56:13;52.33;;;22.15;;
71910;SDS011;59783;52.232;5.170;2022-08-19T05:58:41;53.47;;;23.95;;
71910;SDS011;59783;52.232;5.170;2022-08-19T06:01:14;48.78;;;21.75;;
71910;SDS011;59783;52.232;5.170;2022-08-19T06:03:40;54.17;;;22.80;;
71910;SDS011;59783;52.232;5.170;2022-08-19T06:06:06;51.58;;;23.40;;
71910;SDS011;59783;52.232;5.170;2022-08-19T06:08:33;55.75;;;24.33;;
71910;SDS011;59783;52.232;5.170;2022-08-19T06:11:12;56.38;;;23.75;;
71910;SDS011;59783;52.232;5.170;2022-08-19T06:13:57;55.03;;;24.10;;
71910;SDS011;59783;52.232;5.170;2022-08-19T06:16:22;52.88;;;23.88;;
71910;SDS011;59783;52.232;5.170;2022-08-19T06:18:51;57.72;;;25.42;;
71910;SDS011;59783;52.232;5.170;2022-08-19T06:21:18;59.13;;;24.10;;
71910;SDS011;59783;52.232;5.170;2022-08-19T06:23:45;63.05;;;26.27;;
71910;SDS011;59783;52.232;5.170;2022-08-19T06:26:12;68.78;;;26.90;;
71910;SDS011;59783;52.232;5.170;2022-08-19T06:28:38;61.30;;;25.63;;
71910;SDS011;59783;52.232;5.170;2022-08-19T06:31:08;60.45;;;24.17;;
71910;SDS011;59783;52.232;5.170;2022-08-19T06:33:34;64.25;;;25.33;;
71910;SDS011;59783;52.232;5.170;2022-08-19T06:35:59;61.28;;;24.73;;
71910;SDS011;59783;52.232;5.170;2022-08-19T06:38:25;71.32;;;24.92;;
71910;SDS011;59783;52.232;5.170;2022-08-19T06:40:50;66.53;;;24.83;;
71910;SDS011;59783;52.232;5.170;2022-08-19T06:43:15;65.53;;;26.77;;
71910;SDS011;59783;52.232;5.170;2022-08-19T06:45:41;70.88;;;26.13;;
71910;SDS011;59783;52.232;5.170;2022-08-19T06:48:07;67.57;;;25.02;;
71910;SDS011;59783;52.232;5.170;2022-08-19T06:50:32;63.90;;;24.60;;
71910;SDS011;59783;52.232;5.170;2022-08-19T06:52:57;71.20;;;26.30;;
71910;SDS011;59783;52.232;5.170;2022-08-19T06:55:23;77.43;;;27.17;;
71910;SDS011;59783;52.232;5.170;2022-08-19T06:57:48;66.65;;;26.52;;
71910;SDS011;59783;52.232;5.170;2022-08-19T07:00:18;75.68;;;26.85;;
71910;SDS011;59783;52.232;5.170;2022-08-19T07:02:43;72.10;;;28.00;;
71910;SDS011;59783;52.232;5.170;2022-08-19T07:05:09;73.53;;;28.13;;
71910;SDS011;59783;52.232;5.170;2022-08-19T07:07:35;76.50;;;27.85;;
71910;SDS011;59783;52.232;5.170;2022-08-19T07:10:00;73.32;;;27.85;;
71910;SDS011;59783;52.232;5.170;2022-08-19T07:12:30;75.68;;;30.65;;
71910;SDS011;59783;52.232;5.170;2022-08-19T07:14:58;77.35;;;27.83;;
71910;SDS011;59783;52.232;5.170;2022-08-19T07:17:23;78.93;;;28.63;;
71910;SDS011;59783;52.232;5.170;2022-08-19T07:19:49;79.85;;;28.95;;
71910;SDS011;59783;52.232;5.170;2022-08-19T07:22:15;79.75;;;29.30;;
71910;SDS011;59783;52.232;5.170;2022-08-19T07:24:40;81.05;;;29.30;;
71910;SDS011;59783;52.232;5.170;2022-08-19T07:27:06;83.80;;;31.38;;
71910;SDS011;59783;52.232;5.170;2022-08-19T07:29:32;74.43;;;28.02;;
71910;SDS011;59783;52.232;5.170;2022-08-19T07:31:59;71.72;;;28.40;;
71910;SDS011;59783;52.232;5.170;2022-08-19T07:34:27;76.00;;;28.38;;
71910;SDS011;59783;52.232;5.170;2022-08-19T07:36:54;70.43;;;27.65;;
71910;SDS011;59783;52.232;5.170;2022-08-19T07:39:22;74.32;;;28.98;;
71910;SDS011;59783;52.232;5.170;2022-08-19T07:41:52;77.47;;;29.05;;
71910;SDS011;59783;52.232;5.170;2022-08-19T07:44:18;72.78;;;28.38;;
71910;SDS011;59783;52.232;5.170;2022-08-19T07:46:46;73.68;;;28.48;;
71910;SDS011;59783;52.232;5.170;2022-08-19T07:49:15;73.13;;;30.83;;
71910;SDS011;59783;52.232;5.170;2022-08-19T07:51:49;83.97;;;31.88;;
71910;SDS011;59783;52.232;5.170;2022-08-19T07:54:19;81.63;;;30.70;;
71910;SDS011;59783;52.232;5.170;2022-08-19T07:56:45;85.28;;;32.70;;
71910;SDS011;59783;52.232;5.170;2022-08-19T07:59:11;78.72;;;32.60;;
71910;SDS011;59783;52.232;5.170;2022-08-19T08:01:37;74.90;;;32.00;;
71910;SDS011;59783;52.232;5.170;2022-08-19T08:04:04;75.32;;;30.27;;
71910;SDS011;59783;52.232;5.170;2022-08-19T08:06:49;74.97;;;30.38;;
71910;SDS011;59783;52.232;5.170;2022-08-19T08:09:34;72.50;;;31.25;;
71910;SDS011;59783;52.232;5.170;2022-08-19T08:12:04;68.13;;;30.08;;
71910;SDS011;59783;52.232;5.170;2022-08-19T08:14:34;71.32;;;29.20;;
71910;SDS011;59783;52.232;5.170;2022-08-19T08:17:02;68.22;;;28.77;;
71910;SDS011;59783;52.232;5.170;2022-08-19T08:19:29;69.95;;;29.58;;
71910;SDS011;59783;52.232;5.170;2022-08-19T08:21:56;67.07;;;30.48;;
71910;SDS011;59783;52.232;5.170;2022-08-19T08:26:48;66.30;;;29.63;;
71910;SDS011;59783;52.232;5.170;2022-08-19T08:29:14;70.53;;;30.58;;
71910;SDS011;59783;52.232;5.170;2022-08-19T08:31:40;65.72;;;29.92;;
71910;SDS011;59783;52.232;5.170;2022-08-19T08:34:07;74.20;;;31.15;;
71910;SDS011;59783;52.232;5.170;2022-08-19T08:36:36;72.35;;;31.30;;
71910;SDS011;59783;52.232;5.170;2022-08-19T08:39:05;69.78;;;30.90;;
71910;SDS011;59783;52.232;5.170;2022-08-19T08:41:34;79.97;;;32.05;;
71910;SDS011;59783;52.232;5.170;2022-08-19T08:44:11;87.65;;;31.00;;
71910;SDS011;59783;52.232;5.170;2022-08-19T08:46:47;74.57;;;29.98;;
71910;SDS011;59783;52.232;5.170;2022-08-19T08:51:51;70.03;;;30.17;;
71910;SDS011;59783;52.232;5.170;2022-08-19T08:54:19;64.72;;;30.02;;
71910;SDS011;59783;52.232;5.170;2022-08-19T08:56:46;67.50;;;29.55;;
71910;SDS011;59783;52.232;5.170;2022-08-19T08:59:19;69.05;;;30.25;;
71910;SDS011;59783;52.232;5.170;2022-08-19T09:01:47;61.03;;;28.25;;
71910;SDS011;59783;52.232;5.170;2022-08-19T09:04:13;64.05;;;28.85;;
71910;SDS011;59783;52.232;5.170;2022-08-19T09:06:40;58.10;;;28.38;;
71910;SDS011;59783;52.232;5.170;2022-08-19T09:09:16;68.90;;;29.88;;
71910;SDS011;59783;52.232;5.170;2022-08-19T09:11:55;57.97;;;28.90;;
71910;SDS011;59783;52.232;5.170;2022-08-19T09:17:07;65.25;;;30.00;;
71910;SDS011;59783;52.232;5.170;2022-08-19T09:19:34;58.05;;;29.00;;
71910;SDS011;59783;52.232;5.170;2022-08-19T09:24:26;52.27;;;26.13;;
71910;SDS011;59783;52.232;5.170;2022-08-19T09:26:51;61.72;;;28.42;;
71910;SDS011;59783;52.232;5.170;2022-08-19T09:29:17;55.65;;;27.92;;
71910;SDS011;59783;52.232;5.170;2022-08-19T09:31:42;52.85;;;27.95;;
71910;SDS011;59783;52.232;5.170;2022-08-19T09:34:07;59.50;;;28.55;;
71910;SDS011;59783;52.232;5.170;2022-08-19T09:36:33;51.42;;;25.95;;
71910;SDS011;59783;52.232;5.170;2022-08-19T09:41:26;52.75;;;26.00;;
71910;SDS011;59783;52.232;5.170;2022-08-19T09:43:52;49.08;;;26.80;;
71910;SDS011;59783;52.232;5.170;2022-08-19T09:46:21;46.47;;;25.73;;
71910;SDS011;59783;52.232;5.170;2022-08-19T09:48:47;46.67;;;25.42;;
71910;SDS011;59783;52.232;5.170;2022-08-19T09:51:14;43.17;;;22.48;;
71910;SDS011;59783;52.232;5.170;2022-08-19T09:53:41;43.72;;;22.45;;
71910;SDS011;59783;52.232;5.170;2022-08-19T09:56:07;42.95;;;25.08;;
71910;SDS011;59783;52.232;5.170;2022-08-19T09:58:33;48.55;;;24.95;;
71910;SDS011;59783;52.232;5.170;2022-08-19T10:01:00;41.35;;;25.52;;
71910;SDS011;59783;52.232;5.170;2022-08-19T10:03:27;43.17;;;24.85;;
71910;SDS011;59783;52.232;5.170;2022-08-19T10:05:53;44.75;;;25.92;;
71910;SDS011;59783;52.232;5.170;2022-08-19T10:08:20;40.95;;;23.63;;
71910;SDS011;59783;52.232;5.170;2022-08-19T10:10:47;40.65;;;22.48;;
71910;SDS011;59783;52.232;5.170;2022-08-19T10:13:14;41.50;;;23.90;;
71910;SDS011;59783;52.232;5.170;2022-08-19T10:15:40;42.08;;;23.50;;
71910;SDS011;59783;52.232;5.170;2022-08-19T10:18:06;40.28;;;23.15;;
71910;SDS011;59783;52.232;5.170;2022-08-19T10:20:32;41.30;;;22.25;;
71910;SDS011;59783;52.232;5.170;2022-08-19T10:22:57;41.60;;;21.60;;
71910;SDS011;59783;52.232;5.170;2022-08-19T10:25:24;40.63;;;21.25;;
71910;SDS011;59783;52.232;5.170;2022-08-19T10:27:51;35.47;;;21.00;;
71910;SDS011;59783;52.232;5.170;2022-08-19T10:30:16;42.97;;;20.65;;
71910;SDS011;59783;52.232;5.170;2022-08-19T10:32:41;33.13;;;21.42;;
71910;SDS011;59783;52.232;5.170;2022-08-19T10:35:07;30.73;;;19.52;;
71910;SDS011;59783;52.232;5.170;2022-08-19T10:37:33;33.00;;;21.60;;
71910;SDS011;59783;52.232;5.170;2022-08-19T10:40:02;34.35;;;20.13;;
71910;SDS011;59783;52.232;5.170;2022-08-19T10:42:29;36.13;;;20.13;;
71910;SDS011;59783;52.232;5.170;2022-08-19T10:44:56;32.35;;;19.10;;
71910;SDS011;59783;52.232;5.170;2022-08-19T10:47:21;28.33;;;16.88;;
71910;SDS011;59783;52.232;5.170;2022-08-19T10:49:48;27.40;;;15.77;;
71910;SDS011;59783;52.232;5.170;2022-08-19T10:52:32;30.55;;;16.40;;
71910;SDS011;59783;52.232;5.170;2022-08-19T10:55:02;25.08;;;15.80;;
71910;SDS011;59783;52.232;5.170;2022-08-19T10:57:47;25.55;;;14.07;;
71910;SDS011;59783;52.232;5.170;2022-08-19T11:00:13;24.92;;;15.02;;
71910;SDS011;59783;52.232;5.170;2022-08-19T11:02:38;27.20;;;14.60;;
71910;SDS011;59783;52.232;5.170;2022-08-19T11:05:04;26.02;;;13.40;;
71910;SDS011;59783;52.232;5.170;2022-08-19T11:07:31;26.42;;;14.85;;
71910;SDS011;59783;52.232;5.170;2022-08-19T11:09:57;21.00;;;12.02;;
71910;SDS011;59783;52.232;5.170;2022-08-19T11:12:22;22.10;;;13.32;;
71910;SDS011;59783;52.232;5.170;2022-08-19T11:14:47;21.08;;;11.13;;
71910;SDS011;59783;52.232;5.170;2022-08-19T11:17:15;20.30;;;10.93;;
71910;SDS011;59783;52.232;5.170;2022-08-19T11:19:40;18.02;;;10.65;;
71910;SDS011;59783;52.232;5.170;2022-08-19T11:22:07;16.27;;;9.32;;
71910;SDS011;59783;52.232;5.170;2022-08-19T11:24:34;17.80;;;8.82;;
71910;SDS011;59783;52.232;5.170;2022-08-19T11:27:04;19.15;;;9.68;;
71910;SDS011;59783;52.232;5.170;2022-08-19T11:29:32;19.27;;;11.95;;
71910;SDS011;59783;52.232;5.170;2022-08-19T11:31:59;19.67;;;12.07;;
71910;SDS011;59783;52.232;5.170;2022-08-19T11:34:26;22.65;;;12.80;;
71910;SDS011;59783;52.232;5.170;2022-08-19T11:36:53;24.08;;;13.52;;
71910;SDS011;59783;52.232;5.170;2022-08-19T11:39:22;22.17;;;13.75;;
71910;SDS011;59783;52.232;5.170;2022-08-19T11:41:48;22.83;;;13.93;;
71910;SDS011;59783;52.232;5.170;2022-08-19T11:44:15;24.83;;;14.10;;
71910;SDS011;59783;52.232;5.170;2022-08-19T11:46:41;23.08;;;13.10;;
71910;SDS011;59783;52.232;5.170;2022-08-19T11:49:10;27.13;;;13.05;;
71910;SDS011;59783;52.232;5.170;2022-08-19T11:51:35;23.08;;;12.77;;
71910;SDS011;59783;52.232;5.170;2022-08-19T11:54:01;34.05;;;15.63;;
71910;SDS011;59783;52.232;5.170;2022-08-19T11:56:27;29.35;;;18.27;;
71910;SDS011;59783;52.232;5.170;2022-08-19T11:58:53;31.95;;;19.85;;
71910;SDS011;59783;52.232;5.170;2022-08-19T12:01:19;31.67;;;20.35;;
71910;SDS011;59783;52.232;5.170;2022-08-19T12:03:46;37.85;;;21.63;;
71910;SDS011;59783;52.232;5.170;2022-08-19T12:06:14;32.42;;;20.25;;
71910;SDS011;59783;52.232;5.170;2022-08-19T12:08:41;33.20;;;21.33;;
71910;SDS011;59783;52.232;5.170;2022-08-19T12:11:08;29.52;;;20.05;;
71910;SDS011;59783;52.232;5.170;2022-08-19T12:13:34;34.10;;;20.05;;
71910;SDS011;59783;52.232;5.170;2022-08-19T12:15:59;33.17;;;21.30;;
71910;SDS011;59783;52.232;5.170;2022-08-19T12:18:25;36.70;;;21.83;;
71910;SDS011;59783;52.232;5.170;2022-08-19T12:20:51;33.47;;;21.35;;
71910;SDS011;59783;52.232;5.170;2022-08-19T12:23:17;25.90;;;16.85;;
71910;SDS011;59783;52.232;5.170;2022-08-19T12:25:44;20.77;;;10.85;;
71910;SDS011;59783;52.232;5.170;2022-08-19T12:28:15;17.30;;;10.65;;
71910;SDS011;59783;52.232;5.170;2022-08-19T12:30:44;21.23;;;12.07;;
71910;SDS011;59783;52.232;5.170;2022-08-19T12:33:09;20.00;;;11.68;;
71910;SDS011;59783;52.232;5.170;2022-08-19T12:35:35;17.13;;;12.48;;
71910;SDS011;59783;52.232;5.170;2022-08-19T12:38:01;22.05;;;13.68;;
71910;SDS011;59783;52.232;5.170;2022-08-19T12:40:27;24.10;;;13.77;;
71910;SDS011;59783;52.232;5.170;2022-08-19T12:42:53;20.80;;;12.07;;
71910;SDS011;59783;52.232;5.170;2022-08-19T12:45:19;20.17;;;11.25;;
71910;SDS011;59783;52.232;5.170;2022-08-19T12:47:44;18.85;;;10.90;;
71910;SDS011;59783;52.232;5.170;2022-08-19T12:50:11;20.05;;;10.90;;
71910;SDS011;59783;52.232;5.170;2022-08-19T12:52:36;17.48;;;10.75;;
71910;SDS011;59783;52.232;5.170;2022-08-19T12:55:02;21.33;;;11.75;;
71910;SDS011;59783;52.232;5.170;2022-08-19T12:57:29;18.10;;;10.98;;
71910;SDS011;59783;52.232;5.170;2022-08-19T12:59:56;21.50;;;11.65;;
71910;SDS011;59783;52.232;5.170;2022-08-19T13:02:21;17.80;;;10.20;;
71910;SDS011;59783;52.232;5.170;2022-08-19T13:04:47;18.15;;;9.75;;
71910;SDS011;59783;52.232;5.170;2022-08-19T13:07:12;18.63;;;10.13;;
71910;SDS011;59783;52.232;5.170;2022-08-19T13:09:38;16.33;;;9.20;;
71910;SDS011;59783;52.232;5.170;2022-08-19T13:12:06;17.70;;;8.88;;
71910;SDS011;59783;52.232;5.170;2022-08-19T13:14:33;16.13;;;9.07;;
71910;SDS011;59783;52.232;5.170;2022-08-19T13:16:59;17.45;;;8.65;;
71910;SDS011;59783;52.232;5.170;2022-08-19T13:19:24;17.42;;;8.88;;
71910;SDS011;59783;52.232;5.170;2022-08-19T13:21:51;16.38;;;8.05;;
71910;SDS011;59783;52.232;5.170;2022-08-19T13:24:16;18.08;;;9.02;;
71910;SDS011;59783;52.232;5.170;2022-08-19T13:26:42;15.48;;;7.78;;
71910;SDS011;59783;52.232;5.170;2022-08-19T13:29:07;18.42;;;7.47;;
71910;SDS011;59783;52.232;5.170;2022-08-19T13:31:51;16.55;;;7.53;;
71910;SDS011;59783;52.232;5.170;2022-08-19T13:34:35;15.55;;;7.47;;
71910;SDS011;59783;52.232;5.170;2022-08-19T13:37:02;14.35;;;7.20;;
71910;SDS011;59783;52.232;5.170;2022-08-19T13:39:28;14.32;;;6.50;;
71910;SDS011;59783;52.232;5.170;2022-08-19T13:41:55;11.52;;;6.82;;
71910;SDS011;59783;52.232;5.170;2022-08-19T13:44:20;13.13;;;7.10;;
71910;SDS011;59783;52.232;5.170;2022-08-19T13:46:47;19.75;;;7.60;;
71910;SDS011;59783;52.232;5.170;2022-08-19T13:49:14;13.73;;;6.57;;
71910;SDS011;59783;52.232;5.170;2022-08-19T13:51:40;11.10;;;5.88;;
71910;SDS011;59783;52.232;5.170;2022-08-19T13:54:06;13.68;;;6.28;;
71910;SDS011;59783;52.232;5.170;2022-08-19T13:56:33;11.57;;;5.97;;
71910;SDS011;59783;52.232;5.170;2022-08-19T13:58:59;11.10;;;5.85;;
71910;SDS011;59783;52.232;5.170;2022-08-19T14:01:24;11.05;;;5.40;;
71910;SDS011;59783;52.232;5.170;2022-08-19T14:03:51;10.00;;;3.80;;
71910;SDS011;59783;52.232;5.170;2022-08-19T14:06:16;9.00;;;4.85;;
71910;SDS011;59783;52.232;5.170;2022-08-19T14:08:42;10.40;;;4.75;;
71910;SDS011;59783;52.232;5.170;2022-08-19T14:11:08;10.82;;;6.60;;
71910;SDS011;59783;52.232;5.170;2022-08-19T14:13:33;9.70;;;4.55;;
71910;SDS011;59783;52.232;5.170;2022-08-19T14:15:59;8.05;;;3.92;;
71910;SDS011;59783;52.232;5.170;2022-08-19T14:18:24;7.90;;;3.67;;
71910;SDS011;59783;52.232;5.170;2022-08-19T14:20:50;8.45;;;3.90;;
71910;SDS011;59783;52.232;5.170;2022-08-19T14:23:15;11.20;;;3.63;;
71910;SDS011;59783;52.232;5.170;2022-08-19T14:25:41;10.65;;;4.20;;
71910;SDS011;59783;52.232;5.170;2022-08-19T14:28:07;8.88;;;3.85;;
71910;SDS011;59783;52.232;5.170;2022-08-19T14:30:33;8.18;;;3.90;;
71910;SDS011;59783;52.232;5.170;2022-08-19T14:33:00;9.07;;;3.25;;
71910;SDS011;59783;52.232;5.170;2022-08-19T14:37:52;11.43;;;3.67;;
71910;SDS011;59783;52.232;5.170;2022-08-19T14:40:20;7.95;;;3.70;;
71910;SDS011;59783;52.232;5.170;2022-08-19T14:42:50;7.18;;;3.47;;
71910;SDS011;59783;52.232;5.170;2022-08-19T14:45:24;8.88;;;3.65;;
71910;SDS011;59783;52.232;5.170;2022-08-19T14:47:50;6.78;;;3.00;;
71910;SDS011;59783;52.232;5.170;2022-08-19T14:50:16;10.35;;;4.18;;
71910;SDS011;59783;52.232;5.170;2022-08-19T14:52:41;8.63;;;3.92;;